Time;durP1;ratioP1;P1;durP2;ratioP2;P2;SDS_P1;SDS_P2;PMS_P1;PMS_P2;Temp;Humidity;BMP_temperature;BMP_pressure;BME280_temperature;BME280_humidity;BME280_pressure;Samples;Min_cycle;Max_cycle;Signal;HPM_P1;HPM_P2
2023/08/13 00:00:16;;;;;;;2.25;0.75;;;20.50;71.70;;;;;;5048075;28;20083;-68
2023/08/13 00:02:43;;;;;;;0.70;0.70;;;20.50;71.70;;;;;;5048005;28;20017;-67
2023/08/13 00:05:09;;;;;;;0.75;0.60;;;20.50;71.80;;;;;;5051588;28;20029;-67
2023/08/13 00:07:35;;;;;;;2.17;0.82;;;20.50;71.60;;;;;;5045581;28;20026;-68
2023/08/13 00:10:01;;;;;;;1.65;0.80;;;20.50;70.40;;;;;;5048845;28;20021;-68
2023/08/13 00:12:27;;;;;;;1.95;0.93;;;20.40;70.40;;;;;;5049411;28;20048;-64
2023/08/13 00:14:53;;;;;;;2.72;1.20;;;20.40;70.40;;;;;;5044241;28;20021;-68
2023/08/13 00:17:18;;;;;;;3.78;1.50;;;20.40;70.30;;;;;;5054021;28;20025;-68
2023/08/13 00:19:44;;;;;;;1.40;0.80;;;20.40;70.20;;;;;;5053262;28;20037;-68
2023/08/13 00:22:10;;;;;;;1.80;0.88;;;20.40;70.40;;;;;;5058606;28;20060;-68
2023/08/13 00:24:35;;;;;;;1.98;1.00;;;20.40;70.10;;;;;;5038732;28;20024;-68
2023/08/13 00:27:01;;;;;;;2.95;0.60;;;20.40;70.10;;;;;;5043465;28;20074;-68
2023/08/13 00:29:27;;;;;;;1.13;0.90;;;20.40;70.10;;;;;;5053739;28;20032;-68
2023/08/13 00:31:55;;;;;;;1.20;1.05;;;20.40;70.40;;;;;;5044758;28;20059;-68
2023/08/13 00:34:21;;;;;;;1.42;1.27;;;20.30;70.30;;;;;;5051997;28;20055;-68
2023/08/13 00:36:47;;;;;;;2.83;1.00;;;20.30;70.30;;;;;;5046096;28;20082;-68
2023/08/13 00:39:13;;;;;;;4.68;1.10;;;20.30;70.60;;;;;;5045859;28;20122;-68
2023/08/13 00:41:38;;;;;;;3.25;1.00;;;20.30;70.90;;;;;;5047436;28;20024;-68
2023/08/13 00:44:04;;;;;;;0.73;0.70;;;20.20;71.00;;;;;;5048044;28;20082;-68
2023/08/13 00:46:31;;;;;;;2.60;0.90;;;20.20;71.00;;;;;;5040465;28;20025;-68
2023/08/13 00:49:01;;;;;;;0.80;0.80;;;20.10;71.10;;;;;;5048216;28;20369;-68
2023/08/13 00:51:27;;;;;;;0.80;0.70;;;20.10;71.30;;;;;;5043694;28;20041;-63
2023/08/13 00:53:53;;;;;;;0.85;0.40;;;20.10;71.50;;;;;;5049875;28;20498;-68
2023/08/13 00:56:21;;;;;;;1.00;0.60;;;20.10;71.60;;;;;;5049359;28;20094;-63
2023/08/13 00:58:47;;;;;;;2.40;0.75;;;20.00;71.80;;;;;;5044326;28;20510;-68
2023/08/13 01:01:13;;;;;;;1.25;0.93;;;20.00;72.00;;;;;;5043788;28;20297;-64
2023/08/13 01:03:39;;;;;;;2.10;0.75;;;20.00;72.10;;;;;;5044324;28;20030;-64
2023/08/13 01:06:47;;;;;;;1.45;0.60;;;20.00;72.10;;;;;;5048249;28;20033;-68
2023/08/13 01:09:30;;;;;;;0.73;0.50;;;20.00;72.10;;;;;;5037129;28;20096;-64
2023/08/13 01:12:39;;;;;;;0.65;0.65;;;19.90;72.20;;;;;;5036580;28;20044;-68
2023/08/13 01:15:10;;;;;;;1.80;1.02;;;19.80;72.10;;;;;;5050022;28;20040;-68
2023/08/13 01:17:37;;;;;;;1.13;0.80;;;19.70;72.50;;;;;;5038387;28;20027;-63
2023/08/13 01:20:07;;;;;;;1.50;0.80;;;19.70;72.60;;;;;;5052212;28;20053;-64
2023/08/13 01:22:37;;;;;;;2.45;1.02;;;19.70;72.60;;;;;;5043328;28;20032;-64
2023/08/13 01:25:05;;;;;;;5.43;1.02;;;19.70;72.70;;;;;;5049542;28;20190;-64
2023/08/13 01:27:39;;;;;;;0.60;0.60;;;19.60;73.40;;;;;;5046217;28;20037;-68
2023/08/13 01:30:32;;;;;;;2.33;0.93;;;19.60;72.80;;;;;;5043112;28;20021;-68
2023/08/13 01:33:03;;;;;;;0.95;0.95;;;19.60;73.00;;;;;;5053351;28;20048;-68
2023/08/13 01:35:31;;;;;;;2.78;1.00;;;19.50;73.10;;;;;;5051014;28;20017;-68
2023/08/13 01:37:59;;;;;;;1.25;0.70;;;19.50;73.30;;;;;;5054273;28;20077;-68
2023/08/13 01:40:25;;;;;;;2.60;0.77;;;19.50;73.30;;;;;;5053012;28;20438;-68
2023/08/13 01:42:51;;;;;;;0.75;0.60;;;19.50;73.40;;;;;;5052266;28;20025;-68
2023/08/13 01:45:17;;;;;;;6.28;1.63;;;19.40;73.30;;;;;;5045155;28;20028;-64
2023/08/13 01:47:42;;;;;;;6.40;0.98;;;19.40;73.30;;;;;;5044161;28;20036;-64
2023/08/13 01:50:08;;;;;;;2.03;0.60;;;19.40;73.40;;;;;;5039535;28;20022;-68
2023/08/13 01:52:34;;;;;;;0.75;0.50;;;19.40;73.40;;;;;;5042220;28;20035;-64
2023/08/13 01:55:00;;;;;;;1.45;0.88;;;19.30;73.50;;;;;;5046372;28;20414;-64
2023/08/13 01:57:26;;;;;;;1.08;0.90;;;19.30;73.70;;;;;;5043271;28;20025;-64
2023/08/13 01:59:51;;;;;;;2.33;1.13;;;19.30;73.80;;;;;;5029146;28;20037;-68
2023/08/13 02:02:17;;;;;;;1.73;0.98;;;19.20;73.80;;;;;;5050746;28;20391;-68
2023/08/13 02:04:43;;;;;;;0.98;0.77;;;19.20;73.90;;;;;;5045303;28;20048;-69
2023/08/13 02:07:08;;;;;;;2.50;0.90;;;19.20;74.00;;;;;;5040508;28;20049;-64
2023/08/13 02:09:34;;;;;;;0.75;0.68;;;19.20;74.00;;;;;;5030912;28;20028;-63
2023/08/13 02:11:59;;;;;;;2.72;0.70;;;19.10;74.00;;;;;;5056408;28;20037;-63
2023/08/13 02:14:25;;;;;;;2.60;0.90;;;19.10;74.20;;;;;;5040879;28;20017;-63
2023/08/13 02:16:51;;;;;;;1.17;0.93;;;19.10;74.30;;;;;;5039466;28;20037;-63
2023/08/13 02:19:16;;;;;;;3.03;0.60;;;19.10;74.20;;;;;;5053034;28;20020;-63
2023/08/13 02:21:42;;;;;;;1.52;0.80;;;19.10;74.30;;;;;;5044521;28;20032;-64
2023/08/13 02:24:08;;;;;;;2.38;0.70;;;19.00;74.20;;;;;;5048513;28;20076;-68
2023/08/13 02:26:33;;;;;;;2.25;0.90;;;19.00;74.30;;;;;;5040792;28;20037;-68
2023/08/13 02:28:59;;;;;;;2.67;0.80;;;19.00;74.40;;;;;;5047272;28;20028;-68
2023/08/13 02:31:25;;;;;;;1.95;0.63;;;18.90;74.50;;;;;;5058091;28;20124;-63
2023/08/13 02:33:50;;;;;;;1.27;0.98;;;18.90;74.60;;;;;;5049714;28;20024;-64
2023/08/13 02:36:16;;;;;;;0.60;0.60;;;18.90;74.60;;;;;;5053704;28;20025;-64
2023/08/13 02:38:42;;;;;;;4.03;1.05;;;18.90;74.70;;;;;;5059260;28;20024;-64
2023/08/13 02:41:07;;;;;;;2.03;1.05;;;18.90;74.70;;;;;;5046586;28;20036;-64
2023/08/13 02:43:54;;;;;;;0.47;0.47;;;18.90;74.90;;;;;;5049235;28;20068;-64
2023/08/13 02:46:24;;;;;;;0.95;0.68;;;18.80;74.90;;;;;;5055714;28;20033;-63
2023/08/13 02:48:56;;;;;;;1.67;0.95;;;18.90;75.00;;;;;;5046082;28;20033;-64
2023/08/13 02:51:23;;;;;;;1.37;0.50;;;18.90;75.00;;;;;;5054814;28;20025;-65
2023/08/13 02:53:48;;;;;;;1.40;0.93;;;18.90;75.00;;;;;;5053038;28;20291;-64
2023/08/13 02:56:14;;;;;;;0.77;0.60;;;18.90;75.00;;;;;;5051202;28;20040;-68
2023/08/13 02:58:40;;;;;;;3.88;1.02;;;18.80;75.00;;;;;;5052509;28;20033;-68
2023/08/13 03:01:06;;;;;;;1.50;1.00;;;18.80;75.10;;;;;;5052592;28;20039;-63
2023/08/13 03:03:32;;;;;;;0.68;0.68;;;18.80;75.30;;;;;;5051029;28;20112;-63
2023/08/13 03:05:58;;;;;;;2.10;1.20;;;18.80;75.30;;;;;;5056606;28;20041;-68
2023/08/13 03:08:24;;;;;;;3.20;1.35;;;18.80;75.50;;;;;;5047432;28;20056;-68
2023/08/13 03:10:50;;;;;;;0.95;0.73;;;18.70;75.40;;;;;;5052076;28;20033;-64
2023/08/13 03:13:15;;;;;;;2.10;0.82;;;18.70;75.50;;;;;;5049297;28;20033;-63
2023/08/13 03:15:41;;;;;;;1.77;0.65;;;18.70;75.50;;;;;;5043849;28;20540;-68
2023/08/13 03:18:07;;;;;;;2.45;1.15;;;18.70;75.60;;;;;;5043237;28;20440;-64
2023/08/13 03:20:33;;;;;;;9.57;0.80;;;18.70;75.70;;;;;;5049102;28;20103;-63
2023/08/13 03:22:59;;;;;;;2.40;1.00;;;18.70;75.80;;;;;;5050409;28;20035;-63
2023/08/13 03:25:25;;;;;;;0.47;0.40;;;18.70;75.80;;;;;;5053025;28;20082;-64
2023/08/13 03:27:51;;;;;;;1.33;0.75;;;18.70;75.80;;;;;;5057613;28;20037;-69
2023/08/13 03:30:17;;;;;;;1.42;0.75;;;18.70;76.40;;;;;;5051015;28;20098;-68
2023/08/13 03:32:42;;;;;;;0.38;0.38;;;18.70;75.90;;;;;;5037665;28;20021;-64
2023/08/13 03:35:08;;;;;;;3.03;0.90;;;18.70;75.90;;;;;;5050207;28;20388;-68
2023/08/13 03:37:34;;;;;;;4.93;1.08;;;18.70;76.00;;;;;;5051571;28;20039;-64
2023/08/13 03:40:00;;;;;;;1.45;0.98;;;18.70;76.10;;;;;;5045353;28;20060;-63
2023/08/13 03:42:26;;;;;;;3.83;1.02;;;18.70;76.30;;;;;;5055223;28;20037;-68
2023/08/13 03:44:51;;;;;;;1.95;0.95;;;18.60;76.20;;;;;;5037350;28;20033;-68
2023/08/13 03:47:17;;;;;;;0.85;0.63;;;18.60;76.30;;;;;;5051763;28;20117;-68
2023/08/13 03:49:43;;;;;;;0.80;0.70;;;18.70;76.30;;;;;;5046153;28;20033;-68
2023/08/13 03:52:09;;;;;;;1.65;0.85;;;18.70;76.20;;;;;;5048327;28;20025;-68
2023/08/13 03:54:35;;;;;;;4.22;0.90;;;18.70;76.20;;;;;;5050280;28;20494;-68
2023/08/13 03:57:01;;;;;;;1.20;0.68;;;18.70;76.30;;;;;;5044261;28;20025;-68
2023/08/13 03:59:27;;;;;;;2.05;1.25;;;18.70;76.30;;;;;;5044726;28;20112;-68
2023/08/13 04:01:52;;;;;;;1.75;0.65;;;18.70;76.30;;;;;;5045866;28;20039;-68
2023/08/13 04:04:18;;;;;;;3.70;1.42;;;18.70;76.30;;;;;;5053985;28;20510;-64
2023/08/13 04:06:45;;;;;;;2.53;0.95;;;18.60;76.20;;;;;;5044955;28;20028;-63
2023/08/13 04:09:11;;;;;;;2.83;0.70;;;18.60;76.40;;;;;;5042314;28;20041;-63
2023/08/13 04:11:38;;;;;;;3.17;0.60;;;18.50;76.40;;;;;;5053607;28;20045;-68
2023/08/13 04:14:04;;;;;;;1.13;0.88;;;18.50;76.50;;;;;;5055425;28;20040;-67
2023/08/13 04:16:29;;;;;;;1.25;0.73;;;18.50;76.60;;;;;;5041271;28;20033;-68
2023/08/13 04:18:55;;;;;;;6.55;1.75;;;18.50;76.60;;;;;;5057249;28;20036;-63
2023/08/13 04:21:22;;;;;;;0.90;0.77;;;18.50;76.80;;;;;;5050323;28;20040;-62
2023/08/13 04:23:48;;;;;;;0.60;0.60;;;18.50;76.90;;;;;;5052123;28;20073;-62
2023/08/13 04:26:14;;;;;;;1.58;1.00;;;18.50;77.00;;;;;;5053421;28;20037;-63
2023/08/13 04:28:39;;;;;;;1.38;0.82;;;18.60;77.00;;;;;;5055402;28;20033;-64
2023/08/13 04:31:05;;;;;;;3.80;1.25;;;18.60;76.90;;;;;;5047481;28;20021;-64
2023/08/13 04:33:31;;;;;;;1.20;0.90;;;18.60;76.90;;;;;;5050272;28;20033;-64
2023/08/13 04:35:56;;;;;;;2.00;1.00;;;18.60;76.70;;;;;;5047707;28;20034;-69
2023/08/13 04:38:22;;;;;;;0.57;0.52;;;18.60;76.70;;;;;;5047476;28;20125;-69
2023/08/13 04:40:48;;;;;;;1.35;1.25;;;18.70;76.90;;;;;;5047513;28;20113;-69
2023/08/13 04:43:15;;;;;;;2.92;0.80;;;18.70;76.90;;;;;;5049002;28;20059;-69
2023/08/13 04:45:44;;;;;;;1.27;0.77;;;18.70;76.90;;;;;;5053679;28;20499;-69
2023/08/13 04:48:10;;;;;;;1.02;0.75;;;18.80;76.90;;;;;;5048351;28;20120;-69
2023/08/13 04:50:35;;;;;;;1.35;0.95;;;18.80;76.90;;;;;;5079468;28;20120;-64
2023/08/13 04:53:01;;;;;;;1.63;1.08;;;18.80;76.90;;;;;;5044370;28;20024;-64
2023/08/13 04:55:27;;;;;;;0.63;0.63;;;18.80;77.10;;;;;;5053764;28;20029;-69
2023/08/13 04:57:52;;;;;;;1.52;0.68;;;18.90;77.10;;;;;;5048938;28;20036;-65
2023/08/13 05:00:18;;;;;;;0.88;0.88;;;18.90;77.20;;;;;;5047449;28;20117;-65
2023/08/13 05:02:44;;;;;;;1.30;0.98;;;18.90;77.20;;;;;;5045412;28;20514;-65
2023/08/13 05:05:09;;;;;;;1.63;1.10;;;19.00;77.20;;;;;;5049259;28;20032;-70
2023/08/13 05:07:35;;;;;;;0.40;0.40;;;19.00;77.30;;;;;;5043924;28;20082;-65
2023/08/13 05:10:00;;;;;;;2.60;1.05;;;19.00;77.30;;;;;;5049236;28;20028;-64
2023/08/13 05:12:26;;;;;;;1.10;0.90;;;19.00;77.20;;;;;;5048108;28;20070;-65
2023/08/13 05:14:52;;;;;;;1.67;1.00;;;19.10;77.30;;;;;;5045473;28;20408;-65
2023/08/13 05:17:22;;;;;;;5.50;0.80;;;19.10;77.20;;;;;;5037945;28;20029;-64
2023/08/13 05:19:48;;;;;;;2.35;1.35;;;19.20;77.00;;;;;;5048042;28;20488;-70
2023/08/13 05:22:14;;;;;;;0.90;0.77;;;19.20;77.00;;;;;;5056335;28;20032;-69
2023/08/13 05:24:40;;;;;;;2.38;1.10;;;19.20;77.00;;;;;;5029663;28;20044;-69
2023/08/13 05:27:06;;;;;;;1.15;0.80;;;19.30;77.10;;;;;;5052429;28;20025;-64
2023/08/13 05:29:31;;;;;;;0.60;0.60;;;19.30;77.00;;;;;;5045900;28;20434;-65
2023/08/13 05:31:57;;;;;;;1.30;0.98;;;19.30;77.10;;;;;;5049023;28;20034;-65
2023/08/13 05:34:23;;;;;;;2.30;0.90;;;19.40;77.10;;;;;;5048127;28;20380;-69
2023/08/13 05:36:48;;;;;;;2.17;0.93;;;19.40;77.00;;;;;;5045495;28;20036;-70
2023/08/13 05:39:14;;;;;;;5.35;0.65;;;19.40;76.90;;;;;;5046947;28;20034;-69
2023/08/13 05:41:40;;;;;;;1.45;1.05;;;19.50;76.80;;;;;;5048954;28;20059;-68
2023/08/13 05:44:05;;;;;;;1.08;0.68;;;19.60;76.80;;;;;;5049373;28;20086;-64
2023/08/13 05:46:32;;;;;;;0.88;0.60;;;19.60;76.70;;;;;;5048604;28;20112;-69
2023/08/13 05:48:57;;;;;;;3.00;1.00;;;19.60;76.70;;;;;;5043431;28;20032;-63
2023/08/13 05:51:23;;;;;;;1.45;1.02;;;19.60;76.70;;;;;;5048595;28;20395;-69
2023/08/13 05:53:49;;;;;;;6.15;1.58;;;19.50;76.80;;;;;;5045764;28;20033;-64
2023/08/13 05:56:14;;;;;;;1.42;1.10;;;19.60;77.00;;;;;;5045110;28;20032;-64
2023/08/13 05:58:40;;;;;;;2.25;1.05;;;19.60;76.90;;;;;;5051493;28;20040;-63
2023/08/13 06:01:06;;;;;;;1.67;0.60;;;19.60;76.80;;;;;;5046019;28;20051;-63
2023/08/13 06:03:32;;;;;;;3.15;0.98;;;19.60;76.80;;;;;;5050195;28;20491;-64
2023/08/13 06:05:59;;;;;;;3.28;0.90;;;19.60;76.80;;;;;;5050453;28;20091;-64
2023/08/13 06:08:24;;;;;;;3.55;1.35;;;19.60;76.90;;;;;;5050909;28;20065;-63
2023/08/13 06:10:50;;;;;;;2.03;1.00;;;19.60;76.90;;;;;;5054261;28;20113;-64
2023/08/13 06:13:16;;;;;;;1.65;1.45;;;19.60;76.80;;;;;;5049576;28;20174;-64
2023/08/13 06:15:41;;;;;;;2.63;1.35;;;19.60;76.70;;;;;;5047011;28;20583;-63
2023/08/13 06:18:07;;;;;;;2.72;1.23;;;19.60;76.60;;;;;;5054018;28;20115;-63
2023/08/13 06:20:33;;;;;;;3.03;0.77;;;19.60;76.50;;;;;;5055346;28;20045;-64
2023/08/13 06:22:58;;;;;;;1.85;1.27;;;19.60;76.50;;;;;;5052027;28;20511;-63
2023/08/13 06:25:24;;;;;;;2.38;1.30;;;19.70;76.50;;;;;;5049423;28;20956;-69
2023/08/13 06:27:50;;;;;;;2.72;1.13;;;19.70;76.50;;;;;;5050505;28;20041;-63
2023/08/13 06:30:16;;;;;;;1.95;0.70;;;19.80;76.30;;;;;;5048996;28;20055;-63
2023/08/13 06:32:42;;;;;;;2.38;1.25;;;19.90;76.30;;;;;;5055034;28;20025;-69
2023/08/13 06:35:08;;;;;;;0.98;0.90;;;20.00;76.00;;;;;;5054882;28;20036;-69
2023/08/13 06:37:33;;;;;;;3.15;1.13;;;20.10;75.70;;;;;;5057571;28;20408;-69
2023/08/13 06:39:59;;;;;;;7.55;1.70;;;20.20;75.60;;;;;;5048845;28;20032;-69
2023/08/13 06:42:25;;;;;;;3.70;1.25;;;20.20;75.30;;;;;;5033304;28;20033;-69
2023/08/13 06:44:50;;;;;;;2.00;0.88;;;20.20;75.20;;;;;;5044167;28;20381;-68
2023/08/13 06:47:16;;;;;;;1.98;1.13;;;20.20;75.10;;;;;;5039749;28;20026;-68
2023/08/13 06:49:42;;;;;;;2.95;1.52;;;20.30;75.10;;;;;;5049455;28;20409;-68
2023/08/13 06:52:08;;;;;;;3.38;1.10;;;20.30;74.70;;;;;;5047041;28;20052;-68
2023/08/13 06:54:33;;;;;;;2.05;1.13;;;20.40;74.70;;;;;;5052880;28;20041;-68
2023/08/13 06:57:00;;;;;;;2.00;0.75;;;20.40;74.60;;;;;;5044690;28;20017;-68
2023/08/13 06:59:25;;;;;;;1.00;0.90;;;20.40;74.50;;;;;;5048667;28;20026;-68
2023/08/13 07:01:51;;;;;;;4.75;1.35;;;20.50;74.50;;;;;;5045626;28;20055;-68
2023/08/13 07:04:17;;;;;;;4.28;1.35;;;20.60;74.50;;;;;;5050380;28;20033;-69
2023/08/13 07:06:43;;;;;;;1.42;0.85;;;20.60;74.30;;;;;;5039098;28;20041;-69
2023/08/13 07:09:08;;;;;;;4.13;1.67;;;20.60;74.20;;;;;;5041970;28;20034;-63
2023/08/13 07:11:36;;;;;;;1.98;1.08;;;20.70;74.10;;;;;;5043234;28;20045;-70
2023/08/13 07:14:03;;;;;;;8.55;1.45;;;20.70;74.00;;;;;;5033842;28;20029;-64
2023/08/13 07:16:29;;;;;;;1.95;0.85;;;20.70;74.00;;;;;;5040854;28;20777;-64
2023/08/13 07:18:55;;;;;;;7.30;1.38;;;20.80;73.90;;;;;;5042247;28;20033;-70
2023/08/13 07:21:21;;;;;;;1.75;1.00;;;20.90;73.70;;;;;;5052559;28;20608;-70
2023/08/13 07:23:47;;;;;;;2.05;0.80;;;20.90;73.50;;;;;;5051306;28;20128;-63
2023/08/13 07:26:14;;;;;;;0.88;0.77;;;21.00;73.40;;;;;;5035547;28;20122;-63
2023/08/13 07:28:40;;;;;;;2.28;0.95;;;21.10;73.40;;;;;;5044650;28;20034;-63
2023/08/13 07:31:06;;;;;;;2.72;1.15;;;21.20;72.80;;;;;;5050097;28;20028;-63
2023/08/13 07:33:33;;;;;;;2.70;0.75;;;21.20;72.40;;;;;;5042983;28;20024;-63
2023/08/13 07:36:00;;;;;;;1.20;0.70;;;21.30;72.40;;;;;;5051836;28;20480;-63
2023/08/13 07:38:27;;;;;;;1.60;1.00;;;21.30;72.60;;;;;;5055020;28;20078;-69
2023/08/13 07:40:55;;;;;;;2.78;0.73;;;21.40;72.40;;;;;;5048413;28;20454;-69
2023/08/13 07:43:21;;;;;;;3.42;0.90;;;21.40;72.10;;;;;;5048391;28;20033;-70
2023/08/13 07:45:46;;;;;;;3.30;0.60;;;21.50;71.90;;;;;;5049409;28;20438;-68
2023/08/13 07:48:12;;;;;;;2.80;1.05;;;21.50;72.00;;;;;;5051695;28;20025;-69
2023/08/13 07:50:39;;;;;;;7.43;1.20;;;21.60;72.00;;;;;;5051558;28;20036;-69
2023/08/13 07:53:06;;;;;;;3.25;0.50;;;21.70;72.00;;;;;;5053713;28;20031;-64
2023/08/13 07:55:31;;;;;;;3.05;0.98;;;21.90;71.90;;;;;;5049386;28;20034;-63
2023/08/13 07:57:57;;;;;;;0.93;0.80;;;21.90;71.10;;;;;;5045578;28;20033;-63
2023/08/13 08:00:23;;;;;;;3.90;0.68;;;22.00;71.20;;;;;;5028097;28;20039;-63
2023/08/13 08:02:48;;;;;;;2.97;0.80;;;22.10;71.10;;;;;;5047140;28;20032;-69
2023/08/13 08:05:16;;;;;;;1.23;0.60;;;22.20;71.00;;;;;;5042355;28;20481;-64
2023/08/13 08:07:42;;;;;;;3.03;1.58;;;22.40;70.70;;;;;;5050939;28;20037;-68
2023/08/13 08:10:08;;;;;;;3.42;0.90;;;22.40;70.40;;;;;;5046338;28;20025;-63
2023/08/13 08:12:34;;;;;;;1.10;0.68;;;22.40;70.30;;;;;;5041707;28;20083;-69
2023/08/13 08:14:59;;;;;;;2.13;0.95;;;22.40;70.10;;;;;;5040300;28;20057;-64
2023/08/13 08:17:25;;;;;;;1.42;0.75;;;22.50;70.20;;;;;;5037883;28;20029;-64
2023/08/13 08:19:51;;;;;;;3.03;0.80;;;22.50;70.10;;;;;;5030648;28;20518;-63
2023/08/13 08:22:17;;;;;;;2.30;0.70;;;22.60;70.30;;;;;;5065982;28;20202;-63
2023/08/13 08:24:42;;;;;;;2.03;0.98;;;22.80;70.30;;;;;;5043345;28;20059;-63
2023/08/13 08:27:09;;;;;;;1.95;0.98;;;23.00;69.90;;;;;;5044694;28;20107;-64
2023/08/13 08:29:35;;;;;;;4.30;1.00;;;23.00;69.20;;;;;;5044220;28;20025;-64
2023/08/13 08:32:01;;;;;;;1.88;1.13;;;23.00;69.20;;;;;;5026704;28;20033;-70
2023/08/13 08:34:26;;;;;;;1.90;1.08;;;23.00;69.10;;;;;;5033096;28;20024;-63
2023/08/13 08:36:52;;;;;;;1.42;0.95;;;23.00;69.20;;;;;;5029780;28;20047;-63
2023/08/13 08:39:18;;;;;;;0.63;0.60;;;23.00;70.10;;;;;;5042430;28;20356;-70
2023/08/13 08:41:47;;;;;;;1.63;0.82;;;23.00;69.60;;;;;;5029214;28;20411;-70
2023/08/13 08:44:22;;;;;;;0.80;0.73;;;23.00;69.40;;;;;;5029207;28;20033;-70
2023/08/13 08:46:50;;;;;;;1.35;1.25;;;23.00;69.30;;;;;;5034146;28;20032;-70
2023/08/13 08:49:23;;;;;;;1.83;0.65;;;23.00;69.10;;;;;;5035940;28;20477;-63
2023/08/13 08:51:50;;;;;;;1.95;0.70;;;23.00;69.10;;;;;;5041301;28;20017;-64
2023/08/13 08:54:17;;;;;;;1.20;1.10;;;23.00;69.10;;;;;;5049617;28;20025;-63
2023/08/13 08:56:43;;;;;;;4.88;1.35;;;23.20;69.20;;;;;;5045277;28;20055;-63
2023/08/13 08:59:09;;;;;;;7.18;1.00;;;23.30;68.90;;;;;;5053203;28;20115;-63
2023/08/13 09:01:34;;;;;;;4.47;1.15;;;23.40;68.90;;;;;;5041865;28;20488;-64
2023/08/13 09:04:01;;;;;;;1.48;1.35;;;23.40;67.80;;;;;;5039155;28;20034;-70
2023/08/13 09:07:04;;;;;;;3.92;0.93;;;23.40;67.60;;;;;;5036123;28;20049;-63
2023/08/13 09:09:30;;;;;;;1.05;0.77;;;23.40;67.50;;;;;;5034315;28;20341;-70
2023/08/13 09:11:57;;;;;;;0.77;0.70;;;23.40;67.20;;;;;;5027840;28;20512;-70
2023/08/13 09:14:24;;;;;;;2.55;1.20;;;23.40;67.40;;;;;;5038414;28;20357;-63
2023/08/13 09:16:52;;;;;;;2.85;1.55;;;23.50;67.40;;;;;;5043178;28;20112;-70
2023/08/13 09:19:18;;;;;;;2.38;0.82;;;23.70;67.10;;;;;;5042003;28;20047;-70
2023/08/13 09:22:10;;;;;;;4.07;1.20;;;23.70;66.90;;;;;;5052984;28;20028;-70
2023/08/13 09:24:38;;;;;;;1.25;0.90;;;23.80;66.60;;;;;;5039936;28;20597;-70
2023/08/13 09:27:06;;;;;;;1.20;0.90;;;23.80;66.70;;;;;;5038007;28;20029;-68
2023/08/13 09:29:32;;;;;;;2.08;0.70;;;23.80;66.60;;;;;;5041421;28;20040;-62
2023/08/13 09:31:59;;;;;;;1.02;0.60;;;23.80;66.30;;;;;;5049915;28;20024;-68
2023/08/13 09:34:29;;;;;;;2.05;1.13;;;23.80;66.60;;;;;;5048128;28;20460;-68
2023/08/13 09:36:55;;;;;;;5.07;1.00;;;23.90;66.80;;;;;;5044212;28;20395;-68
2023/08/13 09:39:26;;;;;;;1.00;0.90;;;24.00;66.40;;;;;;5040082;28;20033;-68
2023/08/13 09:41:52;;;;;;;1.85;1.10;;;24.10;66.40;;;;;;5038973;28;20028;-68
2023/08/13 09:44:20;;;;;;;4.15;0.98;;;24.10;65.60;;;;;;5043808;28;20511;-68
2023/08/13 09:46:54;;;;;;;2.95;0.70;;;24.00;64.90;;;;;;5039226;28;21230;-68
2023/08/13 09:49:23;;;;;;;1.30;0.82;;;24.00;64.70;;;;;;5034963;28;20611;-68
2023/08/13 09:51:52;;;;;;;2.05;1.08;;;23.90;64.70;;;;;;5043447;28;20111;-68
2023/08/13 09:54:28;;;;;;;2.08;0.90;;;23.80;64.00;;;;;;5037384;28;20029;-67
2023/08/13 09:57:02;;;;;;;1.85;0.80;;;23.90;64.80;;;;;;5038246;28;20021;-63
2023/08/13 09:59:28;;;;;;;2.08;0.50;;;24.00;64.10;;;;;;5035621;28;20494;-62
2023/08/13 10:01:56;;;;;;;0.95;0.80;;;24.00;64.20;;;;;;5038999;28;20041;-62
2023/08/13 10:04:22;;;;;;;3.00;1.35;;;24.00;64.30;;;;;;5032402;28;20400;-62
2023/08/13 10:06:50;;;;;;;1.50;0.75;;;24.00;64.20;;;;;;5017465;28;20029;-62
2023/08/13 10:09:16;;;;;;;2.20;0.80;;;23.90;64.10;;;;;;5040407;28;20083;-68
2023/08/13 10:11:42;;;;;;;5.97;0.82;;;23.90;64.50;;;;;;5039774;28;20413;-67
2023/08/13 10:14:08;;;;;;;12.68;1.10;;;24.00;64.90;;;;;;5039300;28;20032;-62
2023/08/13 10:16:34;;;;;;;0.60;0.60;;;24.10;64.30;;;;;;5036734;28;20041;-63
2023/08/13 10:19:01;;;;;;;3.15;0.88;;;24.10;64.50;;;;;;5040946;28;20480;-68
2023/08/13 10:21:34;;;;;;;3.30;1.10;;;24.20;64.50;;;;;;5040424;28;20372;-62
2023/08/13 10:24:02;;;;;;;2.97;0.90;;;24.20;63.60;;;;;;5056004;28;20115;-67
2023/08/13 10:26:27;;;;;;;1.45;1.35;;;24.20;63.10;;;;;;5040975;28;20037;-62
2023/08/13 10:28:53;;;;;;;1.08;0.95;;;24.20;63.10;;;;;;5045202;28;20039;-68
2023/08/13 10:31:20;;;;;;;2.70;1.17;;;24.40;63.10;;;;;;5047849;28;20033;-62
2023/08/13 10:33:46;;;;;;;1.77;0.80;;;24.50;62.50;;;;;;5050959;28;20365;-62
2023/08/13 10:36:11;;;;;;;1.55;0.75;;;24.60;62.50;;;;;;5030637;28;20046;-68
2023/08/13 10:38:40;;;;;;;3.22;0.85;;;24.60;62.10;;;;;;5050820;28;20111;-62
2023/08/13 10:41:07;;;;;;;2.92;0.70;;;24.60;61.60;;;;;;5036386;28;20086;-68
2023/08/13 10:43:35;;;;;;;1.60;0.98;;;24.80;61.90;;;;;;5053111;28;20369;-68
2023/08/13 10:46:06;;;;;;;1.50;0.77;;;24.80;60.80;;;;;;5034238;28;20025;-62
2023/08/13 10:48:32;;;;;;;2.50;1.30;;;24.80;61.50;;;;;;5040238;28;20436;-68
2023/08/13 10:50:58;;;;;;;1.92;1.33;;;24.70;60.80;;;;;;5045580;28;20108;-67
2023/08/13 10:53:27;;;;;;;8.70;1.50;;;24.50;61.60;;;;;;5043579;28;20148;-61
2023/08/13 10:55:54;;;;;;;1.02;0.90;;;24.50;62.00;;;;;;5047746;28;20033;-62
2023/08/13 10:58:30;;;;;;;1.35;0.75;;;24.50;62.50;;;;;;5043752;28;20037;-61
2023/08/13 11:01:16;;;;;;;2.95;0.75;;;24.50;62.00;;;;;;5045009;28;20038;-67
2023/08/13 11:03:45;;;;;;;3.78;1.27;;;24.60;61.80;;;;;;5037023;28;20037;-68
2023/08/13 11:06:11;;;;;;;3.53;0.98;;;24.60;61.60;;;;;;5050204;28;20061;-68
2023/08/13 11:08:42;;;;;;;0.82;0.80;;;24.90;61.50;;;;;;5047514;28;20039;-68
2023/08/13 11:11:08;;;;;;;2.33;1.15;;;25.00;61.40;;;;;;5036853;28;20388;-68
2023/08/13 11:13:34;;;;;;;1.30;0.55;;;25.10;61.40;;;;;;5048366;28;20160;-69
2023/08/13 11:15:59;;;;;;;6.05;1.83;;;25.00;61.60;;;;;;5052400;28;20480;-67
2023/08/13 11:18:25;;;;;;;2.15;1.08;;;24.90;61.30;;;;;;5047638;28;20467;-67
2023/08/13 11:20:51;;;;;;;1.55;0.90;;;24.70;61.60;;;;;;5053222;28;20452;-67
2023/08/13 11:23:18;;;;;;;2.85;0.70;;;24.50;62.10;;;;;;5037836;28;20125;-67
2023/08/13 11:25:49;;;;;;;2.55;0.70;;;24.40;62.50;;;;;;5052754;28;20041;-67
2023/08/13 11:28:19;;;;;;;1.48;1.20;;;24.40;62.30;;;;;;5048330;28;20095;-67
2023/08/13 11:30:44;;;;;;;0.52;0.52;;;24.50;62.60;;;;;;5046344;28;20035;-67
2023/08/13 11:33:10;;;;;;;0.90;0.65;;;24.70;62.50;;;;;;5043488;28;20025;-67
2023/08/13 11:35:37;;;;;;;0.52;0.50;;;24.80;63.40;;;;;;5054204;28;20029;-66
2023/08/13 11:38:03;;;;;;;1.13;0.73;;;24.90;62.20;;;;;;5044104;28;20030;-67
2023/08/13 11:40:28;;;;;;;4.38;0.70;;;25.20;62.60;;;;;;5051975;28;20028;-69
2023/08/13 11:42:56;;;;;;;3.50;1.30;;;25.50;61.60;;;;;;5047775;28;20040;-68
2023/08/13 11:45:26;;;;;;;0.98;0.50;;;25.60;60.20;;;;;;5046392;28;20057;-68
2023/08/13 11:47:53;;;;;;;1.23;0.60;;;25.60;60.80;;;;;;5042250;28;20369;-67
2023/08/13 11:50:20;;;;;;;1.92;1.00;;;25.60;60.10;;;;;;5046022;28;20037;-67
2023/08/13 11:53:10;;;;;;;3.38;1.45;;;25.60;60.40;;;;;;5041997;28;20555;-67
2023/08/13 11:55:38;;;;;;;0.60;0.60;;;25.60;60.40;;;;;;5052825;28;20020;-68
2023/08/13 11:58:04;;;;;;;0.85;0.85;;;25.40;60.20;;;;;;5049307;28;20455;-61
2023/08/13 12:00:30;;;;;;;5.15;1.23;;;25.30;60.70;;;;;;5034133;28;20515;-60
2023/08/13 12:02:57;;;;;;;1.08;0.70;;;25.30;60.10;;;;;;5040416;28;20369;-60
2023/08/13 12:05:31;;;;;;;1.20;0.80;;;25.30;60.40;;;;;;5041329;28;20071;-68
2023/08/13 12:07:58;;;;;;;1.60;0.65;;;25.30;60.00;;;;;;5036763;28;20476;-67
2023/08/13 12:10:24;;;;;;;3.00;0.70;;;25.20;60.10;;;;;;5046399;28;20064;-67
2023/08/13 12:12:50;;;;;;;1.40;1.23;;;25.20;60.00;;;;;;5044737;28;20481;-66
2023/08/13 12:15:22;;;;;;;1.05;0.60;;;25.30;59.80;;;;;;5040057;28;20040;-67
2023/08/13 12:17:48;;;;;;;5.22;0.85;;;25.40;58.90;;;;;;5038530;28;20072;-60
2023/08/13 12:20:14;;;;;;;1.63;0.63;;;25.60;59.60;;;;;;5045395;28;20056;-60
2023/08/13 12:22:40;;;;;;;1.75;0.85;;;25.90;59.40;;;;;;5044148;28;20032;-60
2023/08/13 12:25:06;;;;;;;1.70;0.90;;;26.20;58.90;;;;;;5034749;28;20033;-60
2023/08/13 12:27:33;;;;;;;2.00;0.85;;;26.40;58.60;;;;;;5050625;28;20637;-60
2023/08/13 12:29:58;;;;;;;4.03;0.82;;;26.30;57.70;;;;;;5045037;28;20036;-67
2023/08/13 12:32:24;;;;;;;1.60;1.10;;;26.20;58.50;;;;;;5049802;28;20091;-61
2023/08/13 12:34:50;;;;;;;1.60;0.70;;;26.20;58.80;;;;;;5042015;28;20021;-68
2023/08/13 12:37:16;;;;;;;2.92;0.70;;;26.40;57.50;;;;;;5039766;28;20534;-67
2023/08/13 12:39:42;;;;;;;3.10;0.80;;;26.40;57.10;;;;;;5049144;28;20040;-61
2023/08/13 12:42:10;;;;;;;1.90;0.95;;;26.20;56.20;;;;;;5051651;28;21279;-61
2023/08/13 12:44:35;;;;;;;1.63;0.98;;;26.10;57.30;;;;;;5040333;28;20017;-67
2023/08/13 12:47:01;;;;;;;1.90;0.93;;;25.90;57.10;;;;;;5039299;28;20110;-67